Time;durP1;ratioP1;P1;durP2;ratioP2;P2;SDS_P1;SDS_P2;PMS_P1;PMS_P2;Temp;Humidity;BMP_temperature;BMP_pressure;BME280_temperature;BME280_humidity;BME280_pressure;Samples;Min_cycle;Max_cycle;Signal;HPM_P1;HPM_P2
2024/04/07 00:00:23;;;;;;;6.45;1.60;;;;;;;-146.25;89.60;52358.06;2079515;28;20042;-62
2024/04/07 00:01:24;;;;;;;4.18;1.85;;;;;;;-146.25;89.82;52356.03;2077801;28;20116;-62
2024/04/07 00:02:24;;;;;;;3.22;1.40;;;;;;;-146.25;89.81;52400.63;2088284;28;20052;-62
2024/04/07 00:03:25;;;;;;;4.88;2.15;;;;;;;-146.25;90.14;52376.31;2089975;28;20045;-63
2024/04/07 00:04:28;;;;;;;6.32;1.60;;;;;;;-146.25;90.07;52337.78;2087889;28;20829;-63
2024/04/07 00:05:31;;;;;;;2.53;1.50;;;;;;;-146.25;90.53;52343.88;2094824;28;20044;-62
2024/04/07 00:06:33;;;;;;;2.75;1.67;;;;;;;-146.25;90.55;52327.66;2096383;28;20815;-63
2024/04/07 00:07:34;;;;;;;2.75;1.40;;;;;;;-146.25;90.48;52366.16;2088627;28;20878;-62
2024/04/07 00:08:35;;;;;;;6.85;1.40;;;;;;;-146.25;90.77;52329.66;2088040;28;20033;-62
2024/04/07 00:09:38;;;;;;;3.60;1.70;;;;;;;-146.25;91.27;52364.13;2094655;28;20037;-62
2024/04/07 00:10:38;;;;;;;2.83;1.42;;;;;;;-146.25;91.52;52366.16;2079809;28;20049;-62
2024/04/07 00:11:39;;;;;;;3.50;1.70;;;;;;;-146.25;91.79;52356.03;2088103;28;20056;-63
2024/04/07 00:12:40;;;;;;;2.13;1.42;;;;;;;-146.25;92.03;52347.91;2104309;28;20317;-63
2024/04/07 00:13:41;;;;;;;2.47;1.63;;;;;;;-146.25;92.34;52347.91;2096448;28;20045;-63
2024/04/07 00:14:43;;;;;;;4.47;1.70;;;;;;;-146.25;92.49;52313.44;2095846;28;20442;-63
2024/04/07 00:15:44;;;;;;;3.72;1.70;;;;;;;-146.25;92.92;52366.16;2104405;28;20861;-62
2024/04/07 00:16:45;;;;;;;3.53;1.80;;;;;;;-146.25;93.04;52384.41;2095859;28;20044;-63
2024/04/07 00:17:47;;;;;;;4.28;2.08;;;;;;;-146.25;93.85;52325.63;2088634;28;20867;-63
2024/04/07 00:18:49;;;;;;;3.97;2.15;;;;;;;-146.25;94.19;52345.91;2084647;28;20038;-63
2024/04/07 00:19:50;;;;;;;4.22;1.80;;;;;;;-146.25;94.33;52325.63;2071648;28;20157;-62
2024/04/07 00:21:04;;;;;;;5.95;2.10;;;;;;;-146.25;94.98;52368.19;2071332;28;20034;-63
2024/04/07 00:22:07;;;;;;;3.20;1.63;;;;;;;-146.25;94.90;52325.63;2071579;28;20038;-62
2024/04/07 00:23:09;;;;;;;5.75;1.80;;;;;;;-146.25;95.18;52380.38;2071401;28;20030;-62
2024/04/07 00:24:10;;;;;;;4.82;1.85;;;;;;;-146.25;95.46;52366.16;2071556;28;20043;-63
2024/04/07 00:25:10;;;;;;;4.85;1.85;;;;;;;-146.25;95.72;52339.81;2071269;28;20050;-63
2024/04/07 00:26:11;;;;;;;4.22;1.65;;;;;;;-146.25;95.93;52347.91;2088242;28;20088;-62
2024/04/07 00:27:12;;;;;;;2.08;1.63;;;;;;;-146.25;96.20;52360.09;2087718;28;20042;-63
2024/04/07 00:28:13;;;;;;;2.88;1.60;;;;;;;-146.25;96.53;52327.66;2088479;28;20174;-64
2024/04/07 00:29:14;;;;;;;2.88;1.77;;;;;;;-146.25;96.84;52368.19;2087519;28;20551;-63
2024/04/07 00:30:14;;;;;;;3.65;1.90;;;;;;;-146.25;96.97;52335.75;2096070;28;20053;-63
2024/04/07 00:31:15;;;;;;;3.58;1.55;;;;;;;-146.25;97.16;52372.25;2087347;28;20053;-63
2024/04/07 00:32:16;;;;;;;5.28;2.13;;;;;;;-146.25;97.66;52372.25;2088007;28;20046;-63
2024/04/07 00:33:17;;;;;;;3.28;1.60;;;;;;;-146.25;98.01;52364.13;2095962;28;20040;-63
2024/04/07 00:34:18;;;;;;;5.05;1.95;;;;;;;-146.25;98.08;52331.69;2096169;28;20516;-63
2024/04/07 00:35:19;;;;;;;2.90;1.73;;;;;;;-146.25;98.40;52349.94;2096156;28;20519;-63
2024/04/07 00:36:22;;;;;;;6.60;2.00;;;;;;;-146.25;98.93;52388.47;2088192;28;20444;-63
2024/04/07 00:37:26;;;;;;;7.45;3.60;;;;;;;-146.25;99.97;52349.94;2079220;28;20140;-64
2024/04/07 00:38:28;;;;;;;5.70;2.42;;;;;;;-146.25;100.00;52376.31;2080367;28;20029;-63
2024/04/07 00:39:29;;;;;;;3.45;1.67;;;;;;;-146.25;100.00;52343.88;2087587;28;20846;-63
2024/04/07 00:40:32;;;;;;;3.85;1.63;;;;;;;-146.25;100.00;52416.84;2095698;28;20045;-63
2024/04/07 00:41:33;;;;;;;2.95;1.40;;;;;;;-146.25;100.00;52325.63;2104007;28;20033;-64
2024/04/07 00:42:34;;;;;;;2.80;1.67;;;;;;;-146.25;100.00;52347.91;2104927;28;20041;-62
2024/04/07 00:43:37;;;;;;;2.67;1.65;;;;;;;-146.25;100.00;52362.13;2096168;28;20074;-63
2024/04/07 00:44:38;;;;;;;6.22;1.67;;;;;;;-146.25;100.00;52356.03;2096167;28;20044;-62
2024/04/07 00:45:39;;;;;;;4.20;1.98;;;;;;;-146.25;100.00;52356.03;2087769;28;20042;-63
2024/04/07 00:46:45;;;;;;;5.13;2.15;;;;;;;-146.25;100.00;52331.69;2079873;28;20050;-62
2024/04/07 00:47:46;;;;;;;4.70;2.30;;;;;;;-146.25;100.00;52374.28;2088395;28;20918;-63
2024/04/07 00:48:47;;;;;;;4.13;2.63;;;;;;;-146.25;100.00;52366.16;2096549;28;20033;-63
2024/04/07 00:49:48;;;;;;;4.85;2.03;;;;;;;-146.25;100.00;52307.38;2080915;28;20042;-63
2024/04/07 00:50:54;;;;;;;4.03;1.92;;;;;;;-146.25;100.00;52345.91;2079872;28;20130;-62
2024/04/07 00:51:55;;;;;;;3.05;1.95;;;;;;;-146.25;100.00;52356.03;2087632;28;20040;-62
2024/04/07 00:52:56;;;;;;;3.90;2.30;;;;;;;-146.25;100.00;52349.94;2088033;28;20041;-63
2024/04/07 00:53:57;;;;;;;4.38;2.20;;;;;;;-146.25;100.00;52364.13;2087313;28;20045;-63
2024/04/07 00:55:02;;;;;;;7.22;2.38;;;;;;;-146.25;100.00;52339.81;2079880;28;20050;-63
2024/04/07 00:56:03;;;;;;;3.33;2.00;;;;;;;-146.25;100.00;52388.47;2071017;28;20049;-63
2024/04/07 00:57:04;;;;;;;3.40;2.13;;;;;;;-146.25;100.00;52360.09;2072348;28;20951;-63
2024/04/07 00:58:05;;;;;;;5.18;2.13;;;;;;;-146.25;100.00;52366.16;2087544;28;20056;-61
2024/04/07 00:59:06;;;;;;;5.13;2.00;;;;;;;-146.25;100.00;52368.19;2087914;28;20120;-62
2024/04/07 01:00:09;;;;;;;5.28;2.10;;;;;;;-146.25;100.00;52360.09;2087543;28;20053;-62
2024/04/07 01:01:10;;;;;;;3.80;1.98;;;;;;;-146.25;100.00;52374.28;2087872;28;20033;-62
2024/04/07 01:02:11;;;;;;;2.97;1.80;;;;;;;-146.25;100.00;52372.25;2087828;28;20417;-62
2024/04/07 01:03:15;;;;;;;3.45;1.75;;;;;;;-146.25;100.00;52341.84;2087400;28;20930;-63
2024/04/07 01:04:16;;;;;;;4.90;2.17;;;;;;;-146.25;100.00;52331.69;2095989;28;20040;-63
2024/04/07 01:05:17;;;;;;;4.10;1.67;;;;;;;-146.25;100.00;52345.91;2087164;28;20034;-62
2024/04/07 01:06:17;;;;;;;4.35;1.83;;;;;;;-146.25;100.00;52370.22;2079393;28;20050;-62
2024/04/07 01:07:19;;;;;;;4.32;1.95;;;;;;;-146.25;100.00;52339.81;2079490;28;20412;-62
2024/04/07 01:08:21;;;;;;;3.97;2.00;;;;;;;-146.25;100.00;52374.28;2087448;28;20073;-62
2024/04/07 01:09:26;;;;;;;4.82;2.00;;;;;;;-146.25;100.00;52356.03;2087689;28;20475;-62
2024/04/07 01:10:27;;;;;;;4.60;2.13;;;;;;;-146.25;100.00;52347.91;2079324;28;20030;-62
2024/04/07 01:11:29;;;;;;;5.30;2.15;;;;;;;-146.25;100.00;52356.03;2071546;28;20046;-62
2024/04/07 01:12:30;;;;;;;5.22;2.20;;;;;;;-146.25;100.00;52370.22;2080144;28;20964;-62
2024/04/07 01:13:34;;;;;;;3.35;2.10;;;;;;;-146.25;100.00;52400.63;2096166;28;20069;-62
2024/04/07 01:14:35;;;;;;;7.30;2.50;;;;;;;-146.25;100.00;52374.28;2087015;28;20037;-63
2024/04/07 01:15:39;;;;;;;3.80;1.95;;;;;;;-146.25;100.00;52368.19;2071260;28;20451;-63
2024/04/07 01:16:40;;;;;;;4.00;1.70;;;;;;;-146.25;100.00;52364.13;2071672;28;20042;-62
2024/04/07 01:17:40;;;;;;;5.55;2.30;;;;;;;-146.25;100.00;52331.69;2087804;28;20077;-62
2024/04/07 01:18:43;;;;;;;3.53;1.80;;;;;;;-146.25;100.00;52351.97;2095944;28;20049;-62
2024/04/07 01:19:45;;;;;;;4.00;2.10;;;;;;;-146.25;100.00;52380.38;2095782;28;20037;-64
2024/04/07 01:20:46;;;;;;;5.28;1.75;;;;;;;-146.25;100.00;52358.06;2087679;28;20108;-63
2024/04/07 01:21:51;;;;;;;4.40;2.00;;;;;;;-146.25;100.00;52331.69;2071412;28;20125;-61
2024/04/07 01:22:55;;;;;;;2.30;1.50;;;;;;;-146.25;100.00;52374.28;2071549;28;20042;-64
2024/04/07 01:23:56;;;;;;;4.80;1.58;;;;;;;-146.25;100.00;52394.56;2071837;28;20027;-62
2024/04/07 01:24:57;;;;;;;3.45;1.77;;;;;;;-146.25;100.00;52325.63;2071176;28;20078;-64
2024/04/07 01:25:58;;;;;;;3.10;1.63;;;;;;;-146.25;100.00;52333.72;2088014;28;20048;-64
2024/04/07 01:26:59;;;;;;;4.68;1.75;;;;;;;-146.25;100.00;52388.47;2087783;28;20073;-62
2024/04/07 01:28:01;;;;;;;2.65;1.75;;;;;;;-146.25;100.00;52360.09;2071371;28;20882;-62
2024/04/07 01:29:02;;;;;;;5.20;1.52;;;;;;;-146.25;100.00;52358.06;2079092;28;20038;-62
2024/04/07 01:30:03;;;;;;;2.50;1.70;;;;;;;-146.25;100.00;52315.47;2079488;28;20072;-61
2024/04/07 01:31:04;;;;;;;3.60;1.35;;;;;;;-146.25;100.00;52358.06;2071555;28;20058;-62
2024/04/07 01:32:06;;;;;;;2.40;1.45;;;;;;;-146.25;100.00;52360.09;2071328;28;20049;-62
2024/04/07 01:33:07;;;;;;;2.75;1.27;;;;;;;-146.25;100.00;52356.03;2071246;28;20039;-62
2024/04/07 01:34:08;;;;;;;3.28;1.25;;;;;;;-146.25;100.00;52331.69;2087791;28;20041;-61
2024/04/07 01:35:09;;;;;;;3.25;1.40;;;;;;;-146.25;100.00;52345.91;2095978;28;20526;-63
2024/04/07 01:36:10;;;;;;;1.95;1.55;;;;;;;-146.25;100.00;52388.47;2095925;28;20065;-61
2024/04/07 01:37:11;;;;;;;4.85;1.55;;;;;;;-146.25;100.00;52329.66;2087766;28;20042;-62
2024/04/07 01:38:12;;;;;;;2.38;1.50;;;;;;;-146.25;100.00;52356.03;2071177;28;20177;-62
2024/04/07 01:39:16;;;;;;;4.22;1.58;;;;;;;-146.25;100.00;52364.13;2071579;28;20955;-63
2024/04/07 01:40:17;;;;;;;2.40;1.35;;;;;;;-146.25;100.00;52321.56;2072796;28;20034;-63
2024/04/07 01:41:18;;;;;;;2.10;1.50;;;;;;;-146.25;100.00;52345.91;2080711;28;20050;-63
2024/04/07 01:42:18;;;;;;;3.13;1.48;;;;;;;-146.25;100.00;52380.38;2080400;28;20050;-63
2024/04/07 01:43:22;;;;;;;3.65;1.60;;;;;;;-146.25;100.00;52327.66;2089141;28;20053;-63
2024/04/07 01:44:22;;;;;;;2.65;1.60;;;;;;;-146.25;100.00;52386.44;2088435;28;20040;-63
2024/04/07 01:45:23;;;;;;;2.65;1.40;;;;;;;-146.25;100.00;52347.91;2080824;28;20053;-63
2024/04/07 01:46:24;;;;;;;3.60;1.67;;;;;;;-146.25;100.00;52356.03;2089038;28;20551;-62
2024/04/07 01:47:27;;;;;;;3.03;1.60;;;;;;;-146.25;100.00;52339.81;2089178;28;20542;-63
2024/04/07 01:48:28;;;;;;;1.83;1.42;;;;;;;-146.25;100.00;52339.81;2088519;28;20038;-63
2024/04/07 01:49:29;;;;;;;1.98;1.30;;;;;;;-146.25;100.00;52376.31;2097634;28;20045;-63
2024/04/07 01:50:30;;;;;;;3.97;1.40;;;;;;;-146.25;100.00;52364.13;2088864;28;20046;-63
2024/04/07 01:51:31;;;;;;;3.25;1.38;;;;;;;-146.25;100.00;52372.25;2089130;28;20041;-62
2024/04/07 01:52:34;;;;;;;2.75;1.52;;;;;;;-146.25;100.00;52378.34;2096813;28;20049;-63
2024/04/07 01:53:35;;;;;;;2.95;1.50;;;;;;;-146.25;100.00;52402.66;2097428;28;20033;-62
2024/04/07 01:54:35;;;;;;;2.97;1.67;;;;;;;-146.25;100.00;52358.06;2088453;28;20046;-62
2024/04/07 01:55:37;;;;;;;4.70;1.30;;;;;;;-146.25;100.00;52311.44;2072719;28;20075;-62
2024/04/07 01:56:37;;;;;;;3.03;1.77;;;;;;;-146.25;100.00;52329.66;2072391;28;20113;-63
2024/04/07 01:57:38;;;;;;;3.47;1.48;;;;;;;-146.25;100.00;52380.38;2072305;28;20444;-62
2024/04/07 01:58:39;;;;;;;2.35;1.27;;;;;;;-146.25;100.00;52351.97;2072278;28;20050;-62
2024/04/07 01:59:42;;;;;;;2.92;1.08;;;;;;;-146.25;100.00;52386.44;2072447;28;20079;-62
2024/04/07 02:00:43;;;;;;;2.22;1.40;;;;;;;-146.25;100.00;52360.09;2072186;28;20131;-63
2024/04/07 02:01:44;;;;;;;3.80;1.45;;;;;;;-146.25;100.00;52347.91;2080770;28;20424;-63
2024/04/07 02:02:44;;;;;;;2.42;0.90;;;;;;;-146.25;100.00;52374.28;2080741;28;20048;-62
2024/04/07 02:03:45;;;;;;;7.53;1.67;;;;;;;-146.25;100.00;52364.13;2080953;28;20033;-62
2024/04/07 02:04:47;;;;;;;2.55;1.40;;;;;;;-146.25;100.00;52349.94;2088912;28;20422;-62
2024/04/07 02:05:48;;;;;;;2.72;1.17;;;;;;;-146.25;100.00;52360.09;2080958;28;20030;-62
2024/04/07 02:06:48;;;;;;;6.25;1.70;;;;;;;-146.25;100.00;52370.22;2071832;28;20073;-63
2024/04/07 02:07:49;;;;;;;2.67;1.30;;;;;;;-146.25;100.00;52341.84;2080411;28;20100;-63
2024/04/07 02:08:50;;;;;;;2.22;1.30;;;;;;;-146.25;100.00;52380.38;2088752;28;20049;-63
2024/04/07 02:09:51;;;;;;;3.33;1.52;;;;;;;-146.25;100.00;52380.38;2080714;28;20052;-62
2024/04/07 02:10:52;;;;;;;3.88;1.63;;;;;;;-146.25;100.00;52347.91;2080511;28;20049;-62
2024/04/07 02:11:53;;;;;;;2.70;1.20;;;;;;;-146.25;100.00;52339.81;2080667;28;20038;-62
2024/04/07 02:12:54;;;;;;;2.33;1.13;;;;;;;-146.25;100.00;52366.16;2072390;28;20042;-62
2024/04/07 02:13:54;;;;;;;3.10;1.13;;;;;;;-146.25;100.00;52364.13;2080753;28;20042;-62
2024/04/07 02:14:55;;;;;;;3.33;1.40;;;;;;;-146.25;100.00;52370.22;2097099;28;20547;-62
2024/04/07 02:16:00;;;;;;;3.33;1.38;;;;;;;-146.25;100.00;52327.66;2089020;28;20049;-63
2024/04/07 02:17:02;;;;;;;2.75;1.60;;;;;;;-146.25;100.00;52351.97;2072646;28;20042;-62
2024/04/07 02:18:03;;;;;;;4.28;1.90;;;;;;;-146.25;100.00;52394.56;2072768;28;20104;-63
2024/04/07 02:19:04;;;;;;;2.85;1.67;;;;;;;-146.25;100.00;52368.19;2088875;28;20046;-62
2024/04/07 02:20:08;;;;;;;3.90;1.50;;;;;;;-146.25;100.00;52345.91;2088709;28;20711;-63
2024/04/07 02:21:09;;;;;;;4.85;1.70;;;;;;;-146.25;100.00;52372.25;2089348;28;20873;-62
2024/04/07 02:22:10;;;;;;;4.85;1.45;;;;;;;-146.25;100.00;52386.44;2088624;28;20044;-63
2024/04/07 02:23:10;;;;;;;3.97;1.40;;;;;;;-146.25;100.00;52335.75;2072408;28;20098;-63
2024/04/07 02:24:11;;;;;;;2.80;1.40;;;;;;;-146.25;100.00;52368.19;2072497;28;20042;-63
2024/04/07 02:25:12;;;;;;;3.75;1.33;;;;;;;-146.25;100.00;52358.06;2080518;28;20504;-64
2024/04/07 02:26:13;;;;;;;3.45;1.58;;;;;;;-146.25;100.00;52400.63;2080470;28;20042;-62
2024/04/07 02:27:14;;;;;;;2.60;1.63;;;;;;;-146.25;100.00;52354.00;2080693;28;20049;-64
2024/04/07 02:28:14;;;;;;;1.98;1.52;;;;;;;-146.25;100.00;52380.38;2072456;28;20050;-63
2024/04/07 02:29:18;;;;;;;3.42;1.85;;;;;;;-146.25;100.00;52370.22;2080567;28;20042;-63
2024/04/07 02:30:19;;;;;;;2.47;1.55;;;;;;;-146.25;100.00;52372.25;2080496;28;20037;-62
2024/04/07 02:31:20;;;;;;;3.50;2.00;;;;;;;-146.25;100.00;52362.13;2080770;28;20045;-62
2024/04/07 02:32:23;;;;;;;2.78;1.40;;;;;;;-146.25;100.00;52323.59;2096591;28;20818;-62
2024/04/07 02:33:25;;;;;;;3.05;1.50;;;;;;;-146.25;100.00;52416.84;2088031;28;20037;-64
2024/04/07 02:34:26;;;;;;;4.82;1.88;;;;;;;-146.25;100.00;52380.38;2080004;28;20042;-63
2024/04/07 02:35:30;;;;;;;3.35;1.67;;;;;;;-146.25;100.00;52372.25;2080160;28;20448;-63
2024/04/07 02:36:31;;;;;;;3.58;1.67;;;;;;;-146.25;100.00;52368.19;2080410;28;20042;-62
2024/04/07 02:37:32;;;;;;;3.78;1.55;;;;;;;-146.25;100.00;52356.03;2080007;28;20168;-62
2024/04/07 02:38:33;;;;;;;4.18;1.73;;;;;;;-146.25;100.00;52384.41;2088511;28;20412;-63
2024/04/07 02:39:33;;;;;;;4.28;1.50;;;;;;;-146.25;100.00;52356.03;2080335;28;20046;-62
2024/04/07 02:40:34;;;;;;;2.70;1.50;;;;;;;-146.25;100.00;52378.34;2080439;28;20092;-62
2024/04/07 02:41:36;;;;;;;5.00;1.58;;;;;;;-146.25;100.00;52360.09;2088808;28;20042;-62
2024/04/07 02:42:37;;;;;;;3.80;1.40;;;;;;;-146.25;100.00;52372.25;2088663;28;21071;-62
2024/04/07 02:43:40;;;;;;;3.10;1.50;;;;;;;-146.25;100.00;52366.16;2080944;28;20095;-63
2024/04/07 02:48:43;;;;;;;2.63;1.60;;;;;;;-146.25;100.00;52372.25;2090875;28;20764;-62
2024/04/07 02:49:44;;;;;;;2.50;1.30;;;;;;;-146.25;100.00;52349.94;2093845;28;20067;-64
2024/04/07 02:50:47;;;;;;;2.40;1.50;;;;;;;-146.25;100.00;52362.13;2095721;28;20045;-62
2024/04/07 02:51:48;;;;;;;4.28;1.70;;;;;;;-146.25;100.00;52406.72;2087855;28;20041;-63
2024/04/07 02:53:06;;;;;;;2.90;1.63;;;;;;;-146.25;100.00;52354.00;2079686;28;20176;-62
2024/04/07 02:54:07;;;;;;;4.13;1.60;;;;;;;-146.25;100.00;52364.13;2090885;28;20152;-62
2024/04/07 02:55:08;;;;;;;3.25;1.30;;;;;;;-146.25;100.00;52337.78;2096459;28;20037;-62
2024/04/07 02:56:09;;;;;;;4.30;1.60;;;;;;;-146.25;100.00;52356.03;2096713;28;20116;-63
2024/04/07 02:57:12;;;;;;;4.00;1.48;;;;;;;-146.25;100.00;52392.53;2088994;28;20084;-62
2024/04/07 02:58:13;;;;;;;4.13;1.45;;;;;;;-146.25;100.00;52349.94;2088812;28;20534;-62
2024/04/07 02:59:14;;;;;;;5.75;1.65;;;;;;;-146.25;100.00;52360.09;2088311;28;20506;-62
2024/04/07 03:00:17;;;;;;;3.22;1.42;;;;;;;-146.25;100.00;52368.19;2096843;28;20037;-62
2024/04/07 03:01:18;;;;;;;1.73;1.30;;;;;;;-146.25;100.00;52390.50;2104842;28;20033;-63
2024/04/07 03:02:20;;;;;;;3.00;1.60;;;;;;;-146.25;100.00;52368.19;2097380;28;20415;-62
2024/04/07 03:03:21;;;;;;;2.85;1.05;;;;;;;-146.25;100.00;52392.53;2104866;28;20044;-63
2024/04/07 03:04:22;;;;;;;3.03;1.40;;;;;;;-146.25;100.00;52368.19;2096977;28;20407;-62
2024/04/07 03:05:23;;;;;;;2.20;1.50;;;;;;;-146.25;100.00;52339.81;2088157;28;20087;-61
2024/04/07 03:06:24;;;;;;;2.20;1.33;;;;;;;-146.25;100.00;52380.38;2097071;28;20042;-62
2024/04/07 03:07:24;;;;;;;2.97;1.23;;;;;;;-146.25;100.00;52376.31;2096510;28;20045;-63
2024/04/07 03:08:25;;;;;;;5.82;1.60;;;;;;;-146.25;100.00;52388.47;2097200;28;20474;-62
2024/04/07 03:09:27;;;;;;;4.03;1.63;;;;;;;-146.25;100.00;52368.19;2105039;28;20086;-62
2024/04/07 03:10:28;;;;;;;4.43;1.40;;;;;;;-146.25;100.00;52360.09;2088005;28;20045;-62
2024/04/07 03:11:29;;;;;;;3.05;1.52;;;;;;;-146.25;100.00;52339.81;2079899;28;20046;-62
2024/04/07 03:12:30;;;;;;;2.92;1.30;;;;;;;-146.25;100.00;52392.53;2072129;28;20424;-62
2024/04/07 03:13:34;;;;;;;3.50;1.73;;;;;;;-146.25;100.00;52356.03;2071993;28;20042;-62
2024/04/07 03:14:35;;;;;;;3.05;1.50;;;;;;;-146.25;100.00;52384.41;2080193;28;20917;-63
2024/04/07 03:15:36;;;;;;;4.00;1.75;;;;;;;-146.25;100.00;52327.66;2080147;28;20098;-63
2024/04/07 03:16:36;;;;;;;2.85;1.50;;;;;;;-146.25;100.00;52360.09;2080485;28;20492;-63
2024/04/07 03:17:37;;;;;;;3.42;1.70;;;;;;;-146.25;100.00;52386.44;2071813;28;20051;-63
2024/04/07 03:18:38;;;;;;;4.25;1.70;;;;;;;-146.25;100.00;52384.41;2071870;28;20035;-63
2024/04/07 03:19:39;;;;;;;3.03;1.60;;;;;;;-146.25;100.00;52347.91;2088132;28;20053;-63
2024/04/07 03:20:43;;;;;;;2.90;1.58;;;;;;;-146.25;100.00;52396.59;2088368;28;20041;-63
2024/04/07 03:21:44;;;;;;;4.72;1.70;;;;;;;-146.25;100.00;52368.19;2095123;28;20091;-64
2024/04/07 03:22:45;;;;;;;2.60;1.67;;;;;;;-146.25;100.00;52388.47;2096640;28;20049;-63
2024/04/07 03:23:48;;;;;;;4.85;1.80;;;;;;;-146.25;100.00;52372.25;2088334;28;20037;-63
2024/04/07 03:24:50;;;;;;;2.83;1.45;;;;;;;-146.25;100.00;52351.97;2096849;28;20945;-62
2024/04/07 03:25:51;;;;;;;5.38;1.98;;;;;;;-146.25;100.00;52366.16;2096660;28;20045;-63
2024/04/07 03:26:52;;;;;;;3.45;1.55;;;;;;;-146.25;100.00;52366.16;2104854;28;20040;-63
2024/04/07 03:27:53;;;;;;;3.05;1.70;;;;;;;-146.25;100.00;52360.09;2104833;28;20055;-62
2024/04/07 03:28:56;;;;;;;4.28;1.73;;;;;;;-146.25;100.00;52345.91;2096435;28;20081;-63
2024/04/07 03:29:57;;;;;;;2.03;1.52;;;;;;;-146.25;100.00;52339.81;2104782;28;20040;-63
2024/04/07 03:30:58;;;;;;;3.40;1.33;;;;;;;-146.25;100.00;52374.28;2105100;28;20048;-63
2024/04/07 03:31:59;;;;;;;6.50;1.75;;;;;;;-146.25;100.00;52368.19;2088398;28;20681;-63
2024/04/07 03:33:00;;;;;;;5.95;1.48;;;;;;;-146.25;100.00;52364.13;2088562;28;20700;-63
2024/04/07 03:34:01;;;;;;;2.10;1.35;;;;;;;-146.25;100.00;52366.16;2096669;28;20043;-63
2024/04/07 03:35:03;;;;;;;2.75;1.48;;;;;;;-146.25;100.00;52376.31;2088309;28;20044;-63
2024/04/07 03:36:04;;;;;;;3.03;1.48;;;;;;;-146.25;100.00;52380.38;2080014;28;21023;-63
2024/04/07 03:37:06;;;;;;;2.70;1.25;;;;;;;-146.25;100.00;52343.88;2080277;28;20116;-63
2024/04/07 03:38:07;;;;;;;2.50;1.40;;;;;;;-146.25;100.00;52358.06;2096374;28;20048;-63
2024/04/07 03:39:07;;;;;;;5.65;1.70;;;;;;;-146.25;100.00;52343.88;2104852;28;20052;-62
2024/04/07 03:40:12;;;;;;;3.42;1.80;;;;;;;-146.25;100.00;52354.00;2090535;28;20041;-62
2024/04/07 03:41:13;;;;;;;2.40;1.48;;;;;;;-146.25;100.00;52384.41;2087997;28;20135;-62
2024/04/07 03:42:14;;;;;;;3.92;1.30;;;;;;;-146.25;100.00;52364.13;2096779;28;20041;-63
2024/04/07 03:43:16;;;;;;;3.55;1.27;;;;;;;-146.25;100.00;52392.53;2088389;28;20399;-62
2024/04/07 03:44:18;;;;;;;3.22;1.60;;;;;;;-146.25;100.00;52398.59;2072069;28;20038;-63
2024/04/07 03:45:19;;;;;;;3.05;1.50;;;;;;;-146.25;100.00;52321.56;2088188;28;20038;-62
2024/04/07 03:46:20;;;;;;;3.05;1.77;;;;;;;-146.25;100.00;52368.19;2097289;28;20427;-62
2024/04/07 03:47:21;;;;;;;3.00;1.50;;;;;;;-146.25;100.00;52382.38;2096338;28;20052;-62
2024/04/07 03:48:21;;;;;;;3.00;1.65;;;;;;;-146.25;100.00;52378.34;2088337;28;20574;-62
2024/04/07 03:49:22;;;;;;;3.72;1.70;;;;;;;-146.25;100.00;52386.44;2088036;28;20064;-62
2024/04/07 03:50:23;;;;;;;3.03;1.40;;;;;;;-146.25;100.00;52378.34;2088144;28;20451;-63
2024/04/07 03:51:25;;;;;;;6.03;1.55;;;;;;;-146.25;100.00;52351.97;2071342;28;20045;-63
2024/04/07 03:52:25;;;;;;;2.58;1.38;;;;;;;-146.25;100.00;52380.38;2079885;28;20053;-63
2024/04/07 03:53:28;;;;;;;3.75;1.35;;;;;;;-146.25;100.00;52317.50;2079957;28;20524;-62
2024/04/07 03:54:31;;;;;;;4.05;1.77;;;;;;;-146.25;100.00;52380.38;2078299;28;20136;-62
2024/04/07 03:55:31;;;;;;;5.20;2.00;;;;;;;-146.25;100.00;52307.38;2079938;28;20041;-64
2024/04/07 03:56:32;;;;;;;4.47;1.25;;;;;;;-146.25;100.00;52354.00;2079750;28;20362;-62
2024/04/07 03:57:33;;;;;;;5.82;1.20;;;;;;;-146.25;100.00;52364.13;2096735;28;20175;-62
2024/04/07 03:58:34;;;;;;;2.92;1.20;;;;;;;-146.25;100.00;52339.81;2087885;28;20045;-62
2024/04/07 03:59:39;;;;;;;4.20;1.05;;;;;;;-146.25;100.00;52384.41;2072050;28;20912;-62
2024/04/07 04:00:39;;;;;;;5.32;1.30;;;;;;;-146.25;100.00;52364.13;2072391;28;20078;-64
2024/04/07 04:01:41;;;;;;;2.95;1.88;;;;;;;-146.25;100.00;52337.78;2088057;28;20056;-62
2024/04/07 04:02:42;;;;;;;5.55;1.33;;;;;;;-146.25;100.00;52366.16;2087563;28;20512;-61
2024/04/07 04:03:43;;;;;;;4.45;1.05;;;;;;;-146.25;100.00;52339.81;2079953;28;20088;-64
2024/04/07 04:04:45;;;;;;;5.20;1.63;;;;;;;-146.25;100.00;52382.38;2080119;28;20038;-63
2024/04/07 04:05:46;;;;;;;4.85;1.30;;;;;;;-146.25;100.00;52331.69;2071829;28;20374;-62
2024/04/07 04:06:47;;;;;;;5.90;1.50;;;;;;;-146.25;100.00;52366.16;2071864;28;20054;-62
2024/04/07 04:07:48;;;;;;;5.15;1.05;;;;;;;-146.25;100.00;52351.97;2079874;28;21134;-62
2024/04/07 04:08:51;;;;;;;6.22;1.48;;;;;;;-146.25;100.00;52341.84;2079812;28;20164;-63
2024/04/07 04:09:52;;;;;;;4.18;0.95;;;;;;;-146.25;100.00;52358.06;2079736;28;20042;-64
2024/04/07 04:10:53;;;;;;;4.68;1.05;;;;;;;-146.25;100.00;52392.53;2079762;28;20933;-64
2024/04/07 04:11:54;;;;;;;3.50;0.85;;;;;;;-146.25;100.00;52351.97;2079655;28;20048;-62
2024/04/07 04:12:56;;;;;;;5.75;0.80;;;;;;;-146.25;100.00;52351.97;2071655;28;20060;-61
2024/04/07 04:13:57;;;;;;;4.18;0.95;;;;;;;-146.25;100.00;52366.16;2088378;28;20041;-62
2024/04/07 04:14:59;;;;;;;4.05;0.75;;;;;;;-146.25;100.00;52337.78;2088125;28;20041;-62
2024/04/07 04:16:00;;;;;;;3.10;0.90;;;;;;;-146.25;100.00;52349.94;2071945;28;20952;-62
2024/04/07 04:17:01;;;;;;;6.22;0.70;;;;;;;-146.25;100.00;52374.28;2088228;28;20042;-62
2024/04/07 04:18:04;;;;;;;4.53;0.90;;;;;;;-146.25;100.00;52341.84;2088203;28;20108;-62
2024/04/07 04:19:07;;;;;;;5.32;1.10;;;;;;;-146.25;100.00;52374.28;2080310;28;20550;-62
2024/04/07 04:20:09;;;;;;;4.47;0.75;;;;;;;-146.25;100.00;52331.69;2096367;28;20843;-62
2024/04/07 04:21:11;;;;;;;7.72;1.10;;;;;;;-146.25;100.00;52364.13;2079698;28;20142;-62
2024/04/07 04:22:12;;;;;;;5.18;0.60;;;;;;;-146.25;100.00;52382.38;2071726;28;20046;-62
2024/04/07 04:23:12;;;;;;;7.53;0.77;;;;;;;-146.25;100.00;52351.97;2071288;28;20038;-62
2024/04/07 04:24:16;;;;;;;6.18;0.70;;;;;;;-146.25;100.00;52341.84;2080065;28;20772;-62
2024/04/07 04:25:17;;;;;;;2.92;0.70;;;;;;;-146.25;100.00;52384.41;2079681;28;20514;-62
2024/04/07 04:26:21;;;;;;;5.45;0.90;;;;;;;-146.25;100.00;52323.59;2087921;28;20034;-62
2024/04/07 04:27:21;;;;;;;6.03;0.82;;;;;;;-146.25;100.00;52343.88;2087516;28;20053;-62
2024/04/07 04:28:24;;;;;;;4.25;0.60;;;;;;;-146.25;100.00;52311.44;2079833;28;20061;-62
2024/04/07 04:29:25;;;;;;;3.80;0.50;;;;;;;-146.25;100.00;52364.13;2096357;28;20044;-63
2024/04/07 04:30:26;;;;;;;4.38;0.60;;;;;;;-146.25;100.00;52339.81;2088349;28;20460;-62
2024/04/07 04:31:27;;;;;;;6.82;0.70;;;;;;;-146.25;100.00;52329.66;2079934;28;20154;-62
2024/04/07 04:32:27;;;;;;;4.50;0.90;;;;;;;-146.25;100.00;52364.13;2079495;28;20085;-62
2024/04/07 04:33:31;;;;;;;3.67;0.77;;;;;;;-146.25;100.00;52321.56;2079671;28;20045;-62
2024/04/07 04:34:35;;;;;;;3.90;0.50;;;;;;;-146.25;100.00;52337.78;2079413;28;20038;-63
2024/04/07 04:35:36;;;;;;;4.57;1.23;;;;;;;-146.25;100.00;52372.25;2071867;28;20803;-63
2024/04/07 04:36:36;;;;;;;5.72;0.50;;;;;;;-146.25;100.00;52343.88;2087753;28;20052;-63
2024/04/07 04:37:37;;;;;;;4.88;0.82;;;;;;;-146.25;100.00;52339.81;2087676;28;20443;-63
2024/04/07 04:38:38;;;;;;;5.07;0.80;;;;;;;-146.25;100.00;52341.84;2079689;28;20049;-63
2024/04/07 04:39:39;;;;;;;4.00;0.80;;;;;;;-146.25;100.00;52378.34;2071107;28;20126;-63
2024/04/07 04:40:40;;;;;;;5.70;0.80;;;;;;;-146.25;100.00;52358.06;2079789;28;20045;-62
2024/04/07 04:41:47;;;;;;;5.75;0.90;;;;;;;-146.25;100.00;52341.84;2096529;28;20045;-63
2024/04/07 04:42:48;;;;;;;4.82;0.90;;;;;;;-146.25;100.00;52388.47;2095130;28;20033;-63
2024/04/07 04:43:49;;;;;;;3.58;0.50;;;;;;;-146.25;100.00;52380.38;2088098;28;20531;-62